sensor_id;sensor_type;location;lat;lon;timestamp;P1;durP1;ratioP1;P2;durP2;ratioP2
65053;SDS011;51639;47.828;35.038;2023-04-06T00:04:28;58.73;;;12.43;;
65053;SDS011;51639;47.828;35.038;2023-04-06T00:19:30;56.27;;;12.20;;
65053;SDS011;51639;47.828;35.038;2023-04-06T00:34:33;106.97;;;13.23;;
65053;SDS011;51639;47.828;35.038;2023-04-06T00:49:35;48.80;;;11.07;;
65053;SDS011;51639;47.828;35.038;2023-04-06T01:04:37;61.43;;;11.67;;
65053;SDS011;51639;47.828;35.038;2023-04-06T01:19:40;47.67;;;11.20;;
65053;SDS011;51639;47.828;35.038;2023-04-06T01:34:42;47.63;;;11.13;;
65053;SDS011;51639;47.828;35.038;2023-04-06T01:49:44;35.90;;;11.07;;
65053;SDS011;51639;47.828;35.038;2023-04-06T02:04:46;39.37;;;10.70;;
65053;SDS011;51639;47.828;35.038;2023-04-06T02:19:47;22.40;;;8.97;;
65053;SDS011;51639;47.828;35.038;2023-04-06T02:34:50;28.70;;;8.37;;
65053;SDS011;51639;47.828;35.038;2023-04-06T02:49:51;27.47;;;10.10;;
65053;SDS011;51639;47.828;35.038;2023-04-06T03:04:53;20.87;;;9.23;;
65053;SDS011;51639;47.828;35.038;2023-04-06T03:19:56;29.90;;;10.30;;
65053;SDS011;51639;47.828;35.038;2023-04-06T03:34:58;88.20;;;10.33;;
65053;SDS011;51639;47.828;35.038;2023-04-06T03:50:00;111.60;;;11.93;;
65053;SDS011;51639;47.828;35.038;2023-04-06T04:05:02;230.17;;;13.83;;
65053;SDS011;51639;47.828;35.038;2023-04-06T04:20:04;187.00;;;12.17;;
65053;SDS011;51639;47.828;35.038;2023-04-06T04:35:07;251.23;;;16.90;;
65053;SDS011;51639;47.828;35.038;2023-04-06T04:50:09;106.50;;;10.13;;
65053;SDS011;51639;47.828;35.038;2023-04-06T05:05:11;159.67;;;12.17;;
65053;SDS011;51639;47.828;35.038;2023-04-06T05:20:13;93.40;;;10.60;;
65053;SDS011;51639;47.828;35.038;2023-04-06T05:35:15;39.00;;;9.40;;
65053;SDS011;51639;47.828;35.038;2023-04-06T05:50:18;21.33;;;6.17;;
65053;SDS011;51639;47.828;35.038;2023-04-06T06:05:20;16.57;;;4.93;;
65053;SDS011;51639;47.828;35.038;2023-04-06T06:20:22;3.43;;;2.00;;
65053;SDS011;51639;47.828;35.038;2023-04-06T06:35:24;5.13;;;2.17;;
65053;SDS011;51639;47.828;35.038;2023-04-06T06:50:26;3.03;;;1.83;;
65053;SDS011;51639;47.828;35.038;2023-04-06T07:05:29;3.73;;;1.43;;
65053;SDS011;51639;47.828;35.038;2023-04-06T07:20:31;0.60;;;0.60;;
65053;SDS011;51639;47.828;35.038;2023-04-06T07:35:33;1.10;;;0.70;;
65053;SDS011;51639;47.828;35.038;2023-04-06T07:50:36;1.17;;;0.70;;
65053;SDS011;51639;47.828;35.038;2023-04-06T08:05:38;1.30;;;1.20;;
65053;SDS011;51639;47.828;35.038;2023-04-06T08:20:40;5.70;;;1.33;;
65053;SDS011;51639;47.828;35.038;2023-04-06T08:35:43;2.73;;;0.90;;
65053;SDS011;51639;47.828;35.038;2023-04-06T08:50:45;1.90;;;0.97;;
65053;SDS011;51639;47.828;35.038;2023-04-06T09:05:47;0.80;;;0.77;;
65053;SDS011;51639;47.828;35.038;2023-04-06T09:21:00;6.03;;;1.37;;
65053;SDS011;51639;47.828;35.038;2023-04-06T09:36:03;8.93;;;1.83;;
65053;SDS011;51639;47.828;35.038;2023-04-06T09:51:05;10.40;;;2.20;;
65053;SDS011;51639;47.828;35.038;2023-04-06T10:06:20;7.40;;;2.97;;
65053;SDS011;51639;47.828;35.038;2023-04-06T10:22:09;8.13;;;4.00;;
65053;SDS011;51639;47.828;35.038;2023-04-06T10:52:16;8.07;;;4.07;;
65053;SDS011;51639;47.828;35.038;2023-04-06T11:07:22;6.67;;;3.00;;
65053;SDS011;51639;47.828;35.038;2023-04-06T11:22:26;10.70;;;3.63;;
65053;SDS011;51639;47.828;35.038;2023-04-06T11:37:28;8.67;;;3.20;;
65053;SDS011;51639;47.828;35.038;2023-04-06T11:52:30;9.97;;;3.07;;
65053;SDS011;51639;47.828;35.038;2023-04-06T12:07:32;7.17;;;2.77;;
65053;SDS011;51639;47.828;35.038;2023-04-06T12:22:34;6.80;;;3.40;;
65053;SDS011;51639;47.828;35.038;2023-04-06T12:37:36;6.73;;;3.13;;
65053;SDS011;51639;47.828;35.038;2023-04-06T12:52:38;7.67;;;2.63;;
65053;SDS011;51639;47.828;35.038;2023-04-06T13:07:40;4.40;;;2.73;;
65053;SDS011;51639;47.828;35.038;2023-04-06T13:22:42;4.97;;;3.00;;
65053;SDS011;51639;47.828;35.038;2023-04-06T13:37:44;7.27;;;3.33;;
65053;SDS011;51639;47.828;35.038;2023-04-06T13:52:46;3.87;;;2.80;;
65053;SDS011;51639;47.828;35.038;2023-04-06T14:07:48;4.80;;;2.83;;
65053;SDS011;51639;47.828;35.038;2023-04-06T14:22:51;5.70;;;2.30;;
65053;SDS011;51639;47.828;35.038;2023-04-06T14:37:56;3.73;;;2.40;;
65053;SDS011;51639;47.828;35.038;2023-04-06T14:53:00;4.57;;;2.40;;
65053;SDS011;51639;47.828;35.038;2023-04-06T15:08:03;5.10;;;2.93;;
65053;SDS011;51639;47.828;35.038;2023-04-06T15:23:05;8.03;;;3.93;;
65053;SDS011;51639;47.828;35.038;2023-04-06T15:38:08;15.77;;;5.80;;
65053;SDS011;51639;47.828;35.038;2023-04-06T16:08:44;9.57;;;5.10;;
65053;SDS011;51639;47.828;35.038;2023-04-06T16:23:46;15.40;;;5.30;;
65053;SDS011;51639;47.828;35.038;2023-04-06T16:38:49;14.40;;;5.60;;
65053;SDS011;51639;47.828;35.038;2023-04-06T16:53:51;9.03;;;5.90;;
65053;SDS011;51639;47.828;35.038;2023-04-06T17:08:53;8.47;;;5.37;;
65053;SDS011;51639;47.828;35.038;2023-04-06T17:23:59;5.88;;;4.07;;
65053;SDS011;51639;47.828;35.038;2023-04-06T17:39:02;8.60;;;5.17;;
65053;SDS011;51639;47.828;35.038;2023-04-06T17:54:04;7.70;;;5.40;;
65053;SDS011;51639;47.828;35.038;2023-04-06T18:09:06;45.17;;;16.57;;
65053;SDS011;51639;47.828;35.038;2023-04-06T18:24:08;34.87;;;18.70;;
65053;SDS011;51639;47.828;35.038;2023-04-06T18:39:23;21.13;;;10.77;;
65053;SDS011;51639;47.828;35.038;2023-04-06T18:54:25;9.53;;;5.00;;
65053;SDS011;51639;47.828;35.038;2023-04-06T19:09:26;5.60;;;3.30;;
65053;SDS011;51639;47.828;35.038;2023-04-06T19:24:28;7.80;;;3.20;;
65053;SDS011;51639;47.828;35.038;2023-04-06T19:39:31;7.17;;;3.37;;
65053;SDS011;51639;47.828;35.038;2023-04-06T19:54:35;45.23;;;19.00;;
65053;SDS011;51639;47.828;35.038;2023-04-06T20:09:37;14.33;;;5.57;;
65053;SDS011;51639;47.828;35.038;2023-04-06T20:24:39;7.33;;;3.57;;
65053;SDS011;51639;47.828;35.038;2023-04-06T20:39:41;5.13;;;3.70;;
65053;SDS011;51639;47.828;35.038;2023-04-06T20:54:43;8.13;;;4.40;;
65053;SDS011;51639;47.828;35.038;2023-04-06T21:09:44;6.37;;;3.40;;
65053;SDS011;51639;47.828;35.038;2023-04-06T21:24:46;7.23;;;3.20;;
65053;SDS011;51639;47.828;35.038;2023-04-06T21:39:48;6.00;;;3.50;;
65053;SDS011;51639;47.828;35.038;2023-04-06T21:54:50;3.60;;;2.80;;
65053;SDS011;51639;47.828;35.038;2023-04-06T22:09:52;3.77;;;3.00;;
65053;SDS011;51639;47.828;35.038;2023-04-06T22:24:54;6.77;;;4.10;;
65053;SDS011;51639;47.828;35.038;2023-04-06T22:39:57;8.67;;;3.77;;
65053;SDS011;51639;47.828;35.038;2023-04-06T22:54:59;9.70;;;3.40;;
65053;SDS011;51639;47.828;35.038;2023-04-06T23:10:01;7.70;;;4.77;;
65053;SDS011;51639;47.828;35.038;2023-04-06T23:25:03;15.07;;;5.70;;
65053;SDS011;51639;47.828;35.038;2023-04-06T23:40:06;9.97;;;5.27;;
65053;SDS011;51639;47.828;35.038;2023-04-06T23:55:09;10.37;;;5.93;;
